sensor_id;sensor_type;location;lat;lon;timestamp;pressure;altitude;pressure_sealevel;temperature;humidity
18819;BME280;9537;45.594;9.294;2022-12-18T00:00:31;100757.34;;;5.45;100.00
18819;BME280;9537;45.594;9.294;2022-12-18T00:01:35;100758.06;;;5.47;100.00
18819;BME280;9537;45.594;9.294;2022-12-18T00:02:36;100761.63;;;5.46;100.00
18819;BME280;9537;45.594;9.294;2022-12-18T00:03:39;100750.44;;;5.44;100.00
18819;BME280;9537;45.594;9.294;2022-12-18T00:04:40;100754.94;;;5.42;100.00
18819;BME280;9537;45.594;9.294;2022-12-18T00:05:49;100762.06;;;5.40;100.00
18819;BME280;9537;45.594;9.294;2022-12-18T00:06:51;100752.44;;;5.40;100.00
18819;BME280;9537;45.594;9.294;2022-12-18T00:07:53;100759.44;;;5.40;100.00
18819;BME280;9537;45.594;9.294;2022-12-18T00:08:56;100763.03;;;5.39;100.00
18819;BME280;9537;45.594;9.294;2022-12-18T00:09:57;100768.38;;;5.37;100.00
18819;BME280;9537;45.594;9.294;2022-12-18T00:11:05;100767.53;;;5.37;100.00
18819;BME280;9537;45.594;9.294;2022-12-18T00:12:07;100768.50;;;5.36;100.00
18819;BME280;9537;45.594;9.294;2022-12-18T00:13:09;100766.72;;;5.36;100.00
18819;BME280;9537;45.594;9.294;2022-12-18T00:14:12;100772.78;;;5.37;100.00
18819;BME280;9537;45.594;9.294;2022-12-18T00:15:15;100772.19;;;5.33;100.00
18819;BME280;9537;45.594;9.294;2022-12-18T00:16:19;100773.22;;;5.31;100.00
18819;BME280;9537;45.594;9.294;2022-12-18T00:17:21;100772.28;;;5.32;100.00
18819;BME280;9537;45.594;9.294;2022-12-18T00:18:22;100775.84;;;5.31;100.00
18819;BME280;9537;45.594;9.294;2022-12-18T00:19:24;100768.00;;;5.31;100.00
18819;BME280;9537;45.594;9.294;2022-12-18T00:20:25;100773.22;;;5.31;100.00
18819;BME280;9537;45.594;9.294;2022-12-18T00:21:28;100772.41;;;5.30;100.00
18819;BME280;9537;45.594;9.294;2022-12-18T00:22:30;100770.50;;;5.32;100.00
18819;BME280;9537;45.594;9.294;2022-12-18T00:23:33;100771.22;;;5.34;100.00
18819;BME280;9537;45.594;9.294;2022-12-18T00:24:34;100775.75;;;5.32;100.00
18819;BME280;9537;45.594;9.294;2022-12-18T00:25:36;100769.44;;;5.35;100.00
18819;BME280;9537;45.594;9.294;2022-12-18T00:26:39;100775.75;;;5.32;100.00
18819;BME280;9537;45.594;9.294;2022-12-18T00:27:41;100774.06;;;5.31;100.00
18819;BME280;9537;45.594;9.294;2022-12-18T00:28:42;100776.69;;;5.31;100.00
18819;BME280;9537;45.594;9.294;2022-12-18T00:29:44;100774.91;;;5.32;100.00
18819;BME280;9537;45.594;9.294;2022-12-18T00:30:46;100772.50;;;5.29;100.00
18819;BME280;9537;45.594;9.294;2022-12-18T00:31:47;100774.06;;;5.31;100.00
18819;BME280;9537;45.594;9.294;2022-12-18T00:32:49;100771.66;;;5.28;100.00
18819;BME280;9537;45.594;9.294;2022-12-18T00:33:50;100772.50;;;5.29;100.00
18819;BME280;9537;45.594;9.294;2022-12-18T00:34:52;100776.69;;;5.31;100.00
18819;BME280;9537;45.594;9.294;2022-12-18T00:35:53;100777.72;;;5.29;100.00
18819;BME280;9537;45.594;9.294;2022-12-18T00:36:55;100784.75;;;5.28;100.00
18819;BME280;9537;45.594;9.294;2022-12-18T00:37:57;100788.22;;;5.29;100.00
18819;BME280;9537;45.594;9.294;2022-12-18T00:39:00;100779.53;;;5.28;100.00
18819;BME280;9537;45.594;9.294;2022-12-18T00:40:02;100786.56;;;5.28;100.00
18819;BME280;9537;45.594;9.294;2022-12-18T00:41:05;100787.50;;;5.27;100.00
18819;BME280;9537;45.594;9.294;2022-12-18T00:42:10;100792.75;;;5.27;100.00
18819;BME280;9537;45.594;9.294;2022-12-18T00:43:29;100787.50;;;5.27;100.00
18819;BME280;9537;45.594;9.294;2022-12-18T00:44:30;100785.72;;;5.27;100.00
18819;BME280;9537;45.594;9.294;2022-12-18T00:45:32;100787.50;;;5.27;100.00
18819;BME280;9537;45.594;9.294;2022-12-18T00:46:33;100786.66;;;5.26;100.00
18819;BME280;9537;45.594;9.294;2022-12-18T00:47:35;100797.13;;;5.26;100.00
18819;BME280;9537;45.594;9.294;2022-12-18T00:48:36;100799.66;;;5.28;100.00
18819;BME280;9537;45.594;9.294;2022-12-18T00:49:38;100803.22;;;5.27;100.00
18819;BME280;9537;45.594;9.294;2022-12-18T00:50:39;100799.97;;;5.23;100.00
18819;BME280;9537;45.594;9.294;2022-12-18T00:51:41;100803.31;;;5.25;100.00
18819;BME280;9537;45.594;9.294;2022-12-18T00:52:42;100799.88;;;5.25;100.00
18819;BME280;9537;45.594;9.294;2022-12-18T00:53:44;100800.84;;;5.24;100.00
18819;BME280;9537;45.594;9.294;2022-12-18T00:54:45;100810.34;;;5.25;100.00
18819;BME280;9537;45.594;9.294;2022-12-18T00:55:48;100806.06;;;5.24;100.00
18819;BME280;9537;45.594;9.294;2022-12-18T00:56:48;100807.72;;;5.25;100.00
18819;BME280;9537;45.594;9.294;2022-12-18T00:57:52;100811.31;;;5.24;100.00
18819;BME280;9537;45.594;9.294;2022-12-18T00:58:53;100817.47;;;5.23;100.00
18819;BME280;9537;45.594;9.294;2022-12-18T00:59:55;100821.78;;;5.24;100.00
18819;BME280;9537;45.594;9.294;2022-12-18T01:00:56;100814.03;;;5.22;100.00
18819;BME280;9537;45.594;9.294;2022-12-18T01:01:58;100819.16;;;5.24;100.00
18819;BME280;9537;45.594;9.294;2022-12-18T01:03:00;100827.13;;;5.22;100.00
18819;BME280;9537;45.594;9.294;2022-12-18T01:04:02;100823.53;;;5.23;100.00
18819;BME280;9537;45.594;9.294;2022-12-18T01:05:04;100823.06;;;5.18;100.00
18819;BME280;9537;45.594;9.294;2022-12-18T01:06:08;100822.09;;;5.19;100.00
18819;BME280;9537;45.594;9.294;2022-12-18T01:07:10;100817.69;;;5.19;100.00
18819;BME280;9537;45.594;9.294;2022-12-18T01:08:12;100822.84;;;5.21;100.00
18819;BME280;9537;45.594;9.294;2022-12-18T01:09:13;100827.13;;;5.22;100.00
18819;BME280;9537;45.594;9.294;2022-12-18T01:10:15;100823.66;;;5.22;100.00
18819;BME280;9537;45.594;9.294;2022-12-18T01:11:18;100826.16;;;5.23;100.00
18819;BME280;9537;45.594;9.294;2022-12-18T01:12:20;100833.94;;;5.25;100.00
18819;BME280;9537;45.594;9.294;2022-12-18T01:13:22;100829.44;;;5.27;100.00
18819;BME280;9537;45.594;9.294;2022-12-18T01:14:25;100833.81;;;5.26;100.00
18819;BME280;9537;45.594;9.294;2022-12-18T01:15:26;100827.72;;;5.26;100.00
18819;BME280;9537;45.594;9.294;2022-12-18T01:16:27;100831.31;;;5.25;100.00
18819;BME280;9537;45.594;9.294;2022-12-18T01:17:28;100832.13;;;5.25;100.00
18819;BME280;9537;45.594;9.294;2022-12-18T01:18:30;100829.66;;;5.24;100.00
18819;BME280;9537;45.594;9.294;2022-12-18T01:19:32;100831.09;;;5.28;100.00
18819;BME280;9537;45.594;9.294;2022-12-18T01:20:34;100834.66;;;5.27;100.00
18819;BME280;9537;45.594;9.294;2022-12-18T01:21:35;100838.94;;;5.28;100.00
18819;BME280;9537;45.594;9.294;2022-12-18T01:22:37;100835.50;;;5.27;100.00
18819;BME280;9537;45.594;9.294;2022-12-18T01:23:38;100839.91;;;5.27;100.00
18819;BME280;9537;45.594;9.294;2022-12-18T01:24:40;100845.97;;;5.27;100.00
18819;BME280;9537;45.594;9.294;2022-12-18T01:25:41;100843.34;;;5.27;100.00
18819;BME280;9537;45.594;9.294;2022-12-18T01:26:43;100845.84;;;5.29;100.00
18819;BME280;9537;45.594;9.294;2022-12-18T01:27:44;100851.09;;;5.29;100.00
18819;BME280;9537;45.594;9.294;2022-12-18T01:28:48;100849.28;;;5.29;100.00
18819;BME280;9537;45.594;9.294;2022-12-18T01:29:49;100846.69;;;5.29;100.00
18819;BME280;9537;45.594;9.294;2022-12-18T01:30:51;100856.22;;;5.30;100.00
18819;BME280;9537;45.594;9.294;2022-12-18T01:31:55;100856.97;;;5.32;100.00
18819;BME280;9537;45.594;9.294;2022-12-18T01:32:57;100858.63;;;5.33;100.00
18819;BME280;9537;45.594;9.294;2022-12-18T01:34:01;100862.22;;;5.32;100.00
18819;BME280;9537;45.594;9.294;2022-12-18T01:35:04;100868.16;;;5.34;100.00
18819;BME280;9537;45.594;9.294;2022-12-18T01:36:06;100868.16;;;5.34;100.00
18819;BME280;9537;45.594;9.294;2022-12-18T01:37:08;100870.91;;;5.33;100.00
18819;BME280;9537;45.594;9.294;2022-12-18T01:38:09;100869.19;;;5.32;100.00
18819;BME280;9537;45.594;9.294;2022-12-18T01:39:13;100878.84;;;5.31;100.00
18819;BME280;9537;45.594;9.294;2022-12-18T01:40:14;100880.72;;;5.29;100.00
18819;BME280;9537;45.594;9.294;2022-12-18T01:41:19;100884.31;;;5.28;100.00
18819;BME280;9537;45.594;9.294;2022-12-18T01:42:21;100885.97;;;5.29;100.00
18819;BME280;9537;45.594;9.294;2022-12-18T01:43:41;100882.53;;;5.29;100.00
18819;BME280;9537;45.594;9.294;2022-12-18T01:44:58;100883.34;;;5.29;100.00
18819;BME280;9537;45.594;9.294;2022-12-18T01:46:01;100885.78;;;5.32;100.00
18819;BME280;9537;45.594;9.294;2022-12-18T01:47:02;100881.47;;;5.31;100.00
18819;BME280;9537;45.594;9.294;2022-12-18T01:48:06;100875.19;;;5.34;100.00
18819;BME280;9537;45.594;9.294;2022-12-18T01:49:09;100879.69;;;5.32;100.00
18819;BME280;9537;45.594;9.294;2022-12-18T01:50:13;100876.97;;;5.33;100.00
18819;BME280;9537;45.594;9.294;2022-12-18T01:51:15;100885.66;;;5.34;100.00
18819;BME280;9537;45.594;9.294;2022-12-18T01:52:18;100884.59;;;5.36;100.00
18819;BME280;9537;45.594;9.294;2022-12-18T01:53:21;100893.44;;;5.35;100.00
18819;BME280;9537;45.594;9.294;2022-12-18T01:54:25;100888.88;;;5.37;100.00
18819;BME280;9537;45.594;9.294;2022-12-18T01:55:29;100890.59;;;5.38;100.00
18819;BME280;9537;45.594;9.294;2022-12-18T01:56:32;100894.88;;;5.39;100.00
18819;BME280;9537;45.594;9.294;2022-12-18T01:57:34;100896.53;;;5.40;100.00
18819;BME280;9537;45.594;9.294;2022-12-18T01:58:40;100894.78;;;5.41;100.00
18819;BME280;9537;45.594;9.294;2022-12-18T01:59:42;100891.19;;;5.42;100.00
18819;BME280;9537;45.594;9.294;2022-12-18T02:00:47;100892.84;;;5.43;100.00
18819;BME280;9537;45.594;9.294;2022-12-18T02:01:48;100891.94;;;5.44;100.00
18819;BME280;9537;45.594;9.294;2022-12-18T02:02:52;100888.44;;;5.43;100.00
18819;BME280;9537;45.594;9.294;2022-12-18T02:03:53;100900.63;;;5.45;100.00
18819;BME280;9537;45.594;9.294;2022-12-18T02:04:55;100893.69;;;5.43;100.00
18819;BME280;9537;45.594;9.294;2022-12-18T02:06:01;100897.03;;;5.46;100.00
18819;BME280;9537;45.594;9.294;2022-12-18T02:07:10;100900.63;;;5.45;100.00
18819;BME280;9537;45.594;9.294;2022-12-18T02:08:18;100893.59;;;5.45;100.00
18819;BME280;9537;45.594;9.294;2022-12-18T02:09:28;100899.78;;;5.44;100.00
18819;BME280;9537;45.594;9.294;2022-12-18T02:10:36;100895.38;;;5.45;100.00
18819;BME280;9537;45.594;9.294;2022-12-18T02:11:49;100901.53;;;5.43;100.00
18819;BME280;9537;45.594;9.294;2022-12-18T02:12:56;100908.56;;;5.43;100.00
18819;BME280;9537;45.594;9.294;2022-12-18T02:14:10;100905.97;;;5.43;100.00
18819;BME280;9537;45.594;9.294;2022-12-18T02:15:19;100906.09;;;5.41;100.00
18819;BME280;9537;45.594;9.294;2022-12-18T02:16:34;100904.06;;;5.45;100.00
18819;BME280;9537;45.594;9.294;2022-12-18T02:17:41;100894.56;;;5.44;100.00
18819;BME280;9537;45.594;9.294;2022-12-18T02:18:48;100912.78;;;5.46;100.00
18819;BME280;9537;45.594;9.294;2022-12-18T02:20:02;100911.84;;;5.47;100.00
18819;BME280;9537;45.594;9.294;2022-12-18T02:21:12;100912.69;;;5.47;100.00
18819;BME280;9537;45.594;9.294;2022-12-18T02:22:26;100914.25;;;5.50;100.00
18819;BME280;9537;45.594;9.294;2022-12-18T02:23:43;100912.31;;;5.52;100.00
18819;BME280;9537;45.594;9.294;2022-12-18T02:24:58;100905.41;;;5.51;100.00
18819;BME280;9537;45.594;9.294;2022-12-18T02:26:20;100914.03;;;5.53;100.00
18819;BME280;9537;45.594;9.294;2022-12-18T02:27:26;100917.34;;;5.55;100.00
18819;BME280;9537;45.594;9.294;2022-12-18T02:28:32;100910.34;;;5.55;100.00
18819;BME280;9537;45.594;9.294;2022-12-18T02:29:37;100911.19;;;5.56;100.00
18819;BME280;9537;45.594;9.294;2022-12-18T02:30:42;100910.22;;;5.57;100.00
18819;BME280;9537;45.594;9.294;2022-12-18T02:31:47;100900.69;;;5.56;100.00
18819;BME280;9537;45.594;9.294;2022-12-18T02:32:53;100904.97;;;5.57;100.00
18819;BME280;9537;45.594;9.294;2022-12-18T02:33:58;100904.88;;;5.58;100.00
18819;BME280;9537;45.594;9.294;2022-12-18T02:35:04;100898.78;;;5.58;100.00
18819;BME280;9537;45.594;9.294;2022-12-18T02:36:07;100902.25;;;5.58;100.00
18819;BME280;9537;45.594;9.294;2022-12-18T02:37:14;100894.50;;;5.57;100.00
18819;BME280;9537;45.594;9.294;2022-12-18T02:38:16;100897.03;;;5.58;100.00
18819;BME280;9537;45.594;9.294;2022-12-18T02:39:21;100890.91;;;5.58;100.00
18819;BME280;9537;45.594;9.294;2022-12-18T02:40:24;100889.03;;;5.60;100.00
18819;BME280;9537;45.594;9.294;2022-12-18T02:41:29;100888.19;;;5.59;100.00
18819;BME280;9537;45.594;9.294;2022-12-18T02:42:32;100884.53;;;5.62;100.00
18819;BME280;9537;45.594;9.294;2022-12-18T02:43:34;100882.00;;;5.60;100.00
18819;BME280;9537;45.594;9.294;2022-12-18T02:44:41;100888.94;;;5.61;100.00
18819;BME280;9537;45.594;9.294;2022-12-18T02:45:48;100892.25;;;5.63;100.00
18819;BME280;9537;45.594;9.294;2022-12-18T02:46:52;100895.75;;;5.64;100.00
18819;BME280;9537;45.594;9.294;2022-12-18T02:47:54;100901.00;;;5.64;100.00
18819;BME280;9537;45.594;9.294;2022-12-18T02:49:03;100901.00;;;5.64;100.00
18819;BME280;9537;45.594;9.294;2022-12-18T02:50:13;100911.25;;;5.67;100.00
18819;BME280;9537;45.594;9.294;2022-12-18T02:51:22;100906.00;;;5.67;100.00
18819;BME280;9537;45.594;9.294;2022-12-18T02:52:31;100907.88;;;5.65;100.00
18819;BME280;9537;45.594;9.294;2022-12-18T02:53:40;100906.09;;;5.65;100.00
18819;BME280;9537;45.594;9.294;2022-12-18T02:54:57;100908.13;;;5.62;100.00
18819;BME280;9537;45.594;9.294;2022-12-18T02:56:03;100917.63;;;5.63;100.00
18819;BME280;9537;45.594;9.294;2022-12-18T02:57:14;100915.84;;;5.63;100.00
18819;BME280;9537;45.594;9.294;2022-12-18T02:58:20;100920.16;;;5.64;100.00
18819;BME280;9537;45.594;9.294;2022-12-18T02:59:33;100921.97;;;5.64;100.00
18819;BME280;9537;45.594;9.294;2022-12-18T03:00:41;100922.78;;;5.64;100.00
18819;BME280;9537;45.594;9.294;2022-12-18T03:01:50;100925.28;;;5.66;100.00
18819;BME280;9537;45.594;9.294;2022-12-18T03:02:57;100937.56;;;5.65;100.00
18819;BME280;9537;45.594;9.294;2022-12-18T03:04:07;100929.59;;;5.67;100.00
18819;BME280;9537;45.594;9.294;2022-12-18T03:05:13;100933.88;;;5.68;100.00
18819;BME280;9537;45.594;9.294;2022-12-18T03:06:21;100931.16;;;5.70;100.00
18819;BME280;9537;45.594;9.294;2022-12-18T03:07:37;100943.31;;;5.71;100.00
18819;BME280;9537;45.594;9.294;2022-12-18T03:08:43;100946.75;;;5.71;100.00
18819;BME280;9537;45.594;9.294;2022-12-18T03:09:48;100940.56;;;5.72;100.00
18819;BME280;9537;45.594;9.294;2022-12-18T03:10:57;100937.94;;;5.72;100.00
18819;BME280;9537;45.594;9.294;2022-12-18T03:12:04;100932.59;;;5.74;100.00
18819;BME280;9537;45.594;9.294;2022-12-18T03:13:29;100939.63;;;5.73;100.00
18819;BME280;9537;45.594;9.294;2022-12-18T03:14:34;100935.22;;;5.74;100.00
18819;BME280;9537;45.594;9.294;2022-12-18T03:15:42;100934.50;;;5.72;100.00
18819;BME280;9537;45.594;9.294;2022-12-18T03:16:44;100934.50;;;5.72;100.00
18819;BME280;9537;45.594;9.294;2022-12-18T03:17:52;100943.09;;;5.74;100.00
18819;BME280;9537;45.594;9.294;2022-12-18T03:18:58;100947.50;;;5.73;100.00
18819;BME280;9537;45.594;9.294;2022-12-18T03:20:05;100940.47;;;5.74;100.00
18819;BME280;9537;45.594;9.294;2022-12-18T03:21:08;100937.84;;;5.74;100.00
18819;BME280;9537;45.594;9.294;2022-12-18T03:22:13;100938.69;;;5.74;100.00
18819;BME280;9537;45.594;9.294;2022-12-18T03:23:18;100942.13;;;5.75;100.00
18819;BME280;9537;45.594;9.294;2022-12-18T03:24:24;100947.50;;;5.73;100.00
18819;BME280;9537;45.594;9.294;2022-12-18T03:25:28;100946.75;;;5.71;100.00
18819;BME280;9537;45.594;9.294;2022-12-18T03:26:33;100945.94;;;5.71;100.00
18819;BME280;9537;45.594;9.294;2022-12-18T03:27:37;100942.47;;;5.70;100.00
18819;BME280;9537;45.594;9.294;2022-12-18T03:28:47;100947.72;;;5.70;100.00
18819;BME280;9537;45.594;9.294;2022-12-18T03:29:54;100942.56;;;5.69;100.00
18819;BME280;9537;45.594;9.294;2022-12-18T03:31:04;100947.72;;;5.70;100.00
18819;BME280;9537;45.594;9.294;2022-12-18T03:32:11;100944.28;;;5.70;100.00
18819;BME280;9537;45.594;9.294;2022-12-18T03:33:17;100944.38;;;5.68;100.00
18819;BME280;9537;45.594;9.294;2022-12-18T03:34:23;100944.28;;;5.70;100.00
18819;BME280;9537;45.594;9.294;2022-12-18T03:35:30;100950.34;;;5.70;100.00
18819;BME280;9537;45.594;9.294;2022-12-18T03:36:32;100952.00;;;5.71;100.00
18819;BME280;9537;45.594;9.294;2022-12-18T03:37:34;100948.56;;;5.71;100.00
18819;BME280;9537;45.594;9.294;2022-12-18T03:38:36;100959.88;;;5.71;100.00
18819;BME280;9537;45.594;9.294;2022-12-18T03:39:38;100954.63;;;5.71;100.00
18819;BME280;9537;45.594;9.294;2022-12-18T03:40:55;100949.38;;;5.71;100.00
18819;BME280;9537;45.594;9.294;2022-12-18T03:42:04;100953.66;;;5.72;100.00
18819;BME280;9537;45.594;9.294;2022-12-18T03:43:11;100953.66;;;5.72;100.00
18819;BME280;9537;45.594;9.294;2022-12-18T03:44:23;100956.19;;;5.74;100.00
18819;BME280;9537;45.594;9.294;2022-12-18T03:45:31;100955.25;;;5.75;100.00
18819;BME280;9537;45.594;9.294;2022-12-18T03:46:41;100956.94;;;5.76;100.00
18819;BME280;9537;45.594;9.294;2022-12-18T03:47:55;100959.44;;;5.77;100.00
18819;BME280;9537;45.594;9.294;2022-12-18T03:49:09;100953.34;;;5.77;100.00
18819;BME280;9537;45.594;9.294;2022-12-18T03:50:15;100957.78;;;5.76;100.00
18819;BME280;9537;45.594;9.294;2022-12-18T03:51:24;100961.53;;;5.72;100.00
18819;BME280;9537;45.594;9.294;2022-12-18T03:52:30;100953.81;;;5.71;100.00
18819;BME280;9537;45.594;9.294;2022-12-18T03:53:37;100955.69;;;5.69;100.00
18819;BME280;9537;45.594;9.294;2022-12-18T03:54:43;100952.34;;;5.67;100.00
18819;BME280;9537;45.594;9.294;2022-12-18T03:55:48;100953.41;;;5.64;100.00
18819;BME280;9537;45.594;9.294;2022-12-18T03:56:56;100954.34;;;5.63;100.00
18819;BME280;9537;45.594;9.294;2022-12-18T03:58:01;100956.97;;;5.63;100.00
18819;BME280;9537;45.594;9.294;2022-12-18T03:59:04;100970.81;;;5.65;100.00
18819;BME280;9537;45.594;9.294;2022-12-18T04:00:12;100966.50;;;5.64;100.00
18819;BME280;9537;45.594;9.294;2022-12-18T04:01:15;100969.00;;;5.65;100.00
18819;BME280;9537;45.594;9.294;2022-12-18T04:02:19;100964.59;;;5.66;100.00
18819;BME280;9537;45.594;9.294;2022-12-18T04:03:23;100964.59;;;5.66;100.00
18819;BME280;9537;45.594;9.294;2022-12-18T04:04:27;100957.47;;;5.68;100.00
18819;BME280;9537;45.594;9.294;2022-12-18T04:05:30;100968.09;;;5.67;100.00
18819;BME280;9537;45.594;9.294;2022-12-18T04:06:35;100963.69;;;5.67;100.00
18819;BME280;9537;45.594;9.294;2022-12-18T04:07:37;100969.75;;;5.68;100.00
18819;BME280;9537;45.594;9.294;2022-12-18T04:08:41;100971.41;;;5.69;100.00
18819;BME280;9537;45.594;9.294;2022-12-18T04:09:43;100982.72;;;5.69;100.00
18819;BME280;9537;45.594;9.294;2022-12-18T04:10:47;100980.31;;;5.66;100.00
18819;BME280;9537;45.594;9.294;2022-12-18T04:11:48;100980.22;;;5.68;100.00
18819;BME280;9537;45.594;9.294;2022-12-18T04:12:50;100976.78;;;5.67;100.00
18819;BME280;9537;45.594;9.294;2022-12-18T04:13:56;100983.69;;;5.68;100.00
18819;BME280;9537;45.594;9.294;2022-12-18T04:14:59;100985.56;;;5.66;100.00
18819;BME280;9537;45.594;9.294;2022-12-18T04:16:01;100982.13;;;5.65;100.00
18819;BME280;9537;45.594;9.294;2022-12-18T04:17:04;100976.13;;;5.63;100.00
18819;BME280;9537;45.594;9.294;2022-12-18T04:18:04;100974.25;;;5.65;100.00
18819;BME280;9537;45.594;9.294;2022-12-18T04:19:07;100976.88;;;5.65;100.00
18819;BME280;9537;45.594;9.294;2022-12-18T04:20:08;100974.16;;;5.67;100.00
18819;BME280;9537;45.594;9.294;2022-12-18T04:21:11;100975.09;;;5.66;100.00
18819;BME280;9537;45.594;9.294;2022-12-18T04:22:12;100976.88;;;5.65;100.00
18819;BME280;9537;45.594;9.294;2022-12-18T04:23:14;100975.94;;;5.67;100.00
18819;BME280;9537;45.594;9.294;2022-12-18T04:24:15;100982.84;;;5.68;100.00
18819;BME280;9537;45.594;9.294;2022-12-18T04:25:16;100977.59;;;5.68;100.00
18819;BME280;9537;45.594;9.294;2022-12-18T04:26:17;100982.03;;;5.67;100.00
18819;BME280;9537;45.594;9.294;2022-12-18T04:27:20;100982.72;;;5.69;100.00
18819;BME280;9537;45.594;9.294;2022-12-18T04:28:22;100989.75;;;5.69;100.00
18819;BME280;9537;45.594;9.294;2022-12-18T04:29:24;100985.47;;;5.68;100.00
18819;BME280;9537;45.594;9.294;2022-12-18T04:30:25;100989.16;;;5.65;100.00
18819;BME280;9537;45.594;9.294;2022-12-18T04:31:28;100994.38;;;5.65;100.00
18819;BME280;9537;45.594;9.294;2022-12-18T04:32:29;100992.72;;;5.64;100.00
18819;BME280;9537;45.594;9.294;2022-12-18T04:33:31;100986.63;;;5.63;100.00
18819;BME280;9537;45.594;9.294;2022-12-18T04:34:32;100993.88;;;5.60;100.00
18819;BME280;9537;45.594;9.294;2022-12-18T04:35:34;100994.69;;;5.60;100.00
18819;BME280;9537;45.594;9.294;2022-12-18T04:36:35;100994.69;;;5.60;100.00
18819;BME280;9537;45.594;9.294;2022-12-18T04:37:37;100993.88;;;5.60;100.00
18819;BME280;9537;45.594;9.294;2022-12-18T04:38:38;100995.56;;;5.61;100.00
18819;BME280;9537;45.594;9.294;2022-12-18T04:39:40;101000.81;;;5.61;100.00
18819;BME280;9537;45.594;9.294;2022-12-18T04:40:41;100998.19;;;5.61;100.00
18819;BME280;9537;45.594;9.294;2022-12-18T04:41:44;101002.47;;;5.62;100.00
18819;BME280;9537;45.594;9.294;2022-12-18T04:42:45;101006.75;;;5.63;100.00
18819;BME280;9537;45.594;9.294;2022-12-18T04:43:47;101007.72;;;5.62;100.00
18819;BME280;9537;45.594;9.294;2022-12-18T04:44:47;101012.97;;;5.62;100.00
18819;BME280;9537;45.594;9.294;2022-12-18T04:45:50;101019.88;;;5.63;100.00
18819;BME280;9537;45.594;9.294;2022-12-18T04:46:52;101018.81;;;5.65;100.00
18819;BME280;9537;45.594;9.294;2022-12-18T04:47:54;101024.88;;;5.66;100.00
18819;BME280;9537;45.594;9.294;2022-12-18T04:48:55;101025.63;;;5.68;100.00
18819;BME280;9537;45.594;9.294;2022-12-18T04:49:57;101024.88;;;5.66;100.00
18819;BME280;9537;45.594;9.294;2022-12-18T04:50:58;101031.91;;;5.65;100.00
18819;BME280;9537;45.594;9.294;2022-12-18T04:52:00;101028.47;;;5.65;100.00
18819;BME280;9537;45.594;9.294;2022-12-18T04:53:01;101026.81;;;5.64;100.00
18819;BME280;9537;45.594;9.294;2022-12-18T04:54:02;101029.31;;;5.65;100.00
18819;BME280;9537;45.594;9.294;2022-12-18T04:55:05;101027.50;;;5.66;100.00
18819;BME280;9537;45.594;9.294;2022-12-18T04:56:08;101035.38;;;5.66;100.00
18819;BME280;9537;45.594;9.294;2022-12-18T04:57:10;101031.00;;;5.67;100.00
18819;BME280;9537;45.594;9.294;2022-12-18T04:58:11;101032.75;;;5.66;100.00
18819;BME280;9537;45.594;9.294;2022-12-18T04:59:13;101038.00;;;5.66;100.00
18819;BME280;9537;45.594;9.294;2022-12-18T05:00:15;101028.38;;;5.67;100.00
18819;BME280;9537;45.594;9.294;2022-12-18T05:01:18;101031.09;;;5.65;100.00
18819;BME280;9537;45.594;9.294;2022-12-18T05:02:21;101028.38;;;5.67;100.00
18819;BME280;9537;45.594;9.294;2022-12-18T05:03:23;101030.13;;;5.66;100.00
18819;BME280;9537;45.594;9.294;2022-12-18T05:04:24;101033.72;;;5.65;100.00
18819;BME280;9537;45.594;9.294;2022-12-18T05:05:26;101032.88;;;5.64;100.00
18819;BME280;9537;45.594;9.294;2022-12-18T05:06:27;101040.75;;;5.64;100.00
18819;BME280;9537;45.594;9.294;2022-12-18T05:07:30;101041.56;;;5.65;100.00
18819;BME280;9537;45.594;9.294;2022-12-18T05:08:31;101048.59;;;5.64;100.00
18819;BME280;9537;45.594;9.294;2022-12-18T05:09:33;101053.00;;;5.64;100.00
18819;BME280;9537;45.594;9.294;2022-12-18T05:10:34;101047.78;;;5.64;100.00
18819;BME280;9537;45.594;9.294;2022-12-18T05:11:36;101052.88;;;5.65;100.00
18819;BME280;9537;45.594;9.294;2022-12-18T05:12:38;101048.59;;;5.64;100.00
18819;BME280;9537;45.594;9.294;2022-12-18T05:13:58;101052.06;;;5.65;100.00
18819;BME280;9537;45.594;9.294;2022-12-18T05:14:59;101054.59;;;5.67;100.00
18819;BME280;9537;45.594;9.294;2022-12-18T05:16:02;101051.84;;;5.68;100.00
18819;BME280;9537;45.594;9.294;2022-12-18T05:17:03;101058.88;;;5.68;100.00
18819;BME280;9537;45.594;9.294;2022-12-18T05:18:07;101057.22;;;5.67;100.00
18819;BME280;9537;45.594;9.294;2022-12-18T05:19:08;101058.03;;;5.67;100.00
18819;BME280;9537;45.594;9.294;2022-12-18T05:20:10;101064.13;;;5.68;100.00
18819;BME280;9537;45.594;9.294;2022-12-18T05:21:11;101061.59;;;5.66;100.00
18819;BME280;9537;45.594;9.294;2022-12-18T05:22:13;101065.16;;;5.65;100.00
18819;BME280;9537;45.594;9.294;2022-12-18T05:23:14;101062.53;;;5.65;100.00
18819;BME280;9537;45.594;9.294;2022-12-18T05:24:16;101063.28;;;5.67;100.00
18819;BME280;9537;45.594;9.294;2022-12-18T05:25:18;101060.66;;;5.67;100.00
18819;BME280;9537;45.594;9.294;2022-12-18T05:26:20;101069.34;;;5.68;100.00
18819;BME280;9537;45.594;9.294;2022-12-18T05:27:21;101068.53;;;5.67;100.00
18819;BME280;9537;45.594;9.294;2022-12-18T05:28:25;101070.19;;;5.68;100.00
18819;BME280;9537;45.594;9.294;2022-12-18T05:29:27;101071.03;;;5.69;100.00
18819;BME280;9537;45.594;9.294;2022-12-18T05:30:29;101081.41;;;5.70;100.00
18819;BME280;9537;45.594;9.294;2022-12-18T05:31:30;101077.84;;;5.71;100.00
18819;BME280;9537;45.594;9.294;2022-12-18T05:32:32;101076.06;;;5.72;100.00
18819;BME280;9537;45.594;9.294;2022-12-18T05:33:34;101077.84;;;5.71;100.00
18819;BME280;9537;45.594;9.294;2022-12-18T05:34:37;101079.41;;;5.74;100.00
18819;BME280;9537;45.594;9.294;2022-12-18T05:35:38;101068.94;;;5.74;100.00
18819;BME280;9537;45.594;9.294;2022-12-18T05:36:39;101072.38;;;5.74;100.00
18819;BME280;9537;45.594;9.294;2022-12-18T05:37:41;101075.22;;;5.71;100.00
18819;BME280;9537;45.594;9.294;2022-12-18T05:38:43;101072.59;;;5.71;100.00
18819;BME280;9537;45.594;9.294;2022-12-18T05:39:44;101075.22;;;5.71;100.00